Time,TemperatureF,DewpointF,PressureIn,WindDirection,WindDirectionDegrees,WindSpeedMPH,WindSpeedGustMPH,Humidity,HourlyPrecipIn,Conditions,Clouds,dailyrainin,SoftwareType,DateUTC
2013-05-30 00:02:00,64.0,59.0,29.70,NW,311,3.0,9.0,84,0.00,,,2.72,,2013-05-30 05:02:00,
2013-05-30 00:12:00,64.0,59.0,29.70,NW,311,3.0,9.0,84,0.00,,,2.72,,2013-05-30 05:12:00,
2013-05-30 00:22:00,64.0,59.0,29.70,NW,311,3.0,9.0,84,0.00,,,2.72,,2013-05-30 05:22:00,
2013-05-30 00:32:00,64.0,60.0,29.70,ESE,113,2.0,10.0,87,0.00,,,2.72,,2013-05-30 05:32:00,
2013-05-30 00:42:00,64.0,60.0,29.70,ESE,113,2.0,10.0,87,0.00,,,2.72,,2013-05-30 05:42:00,
2013-05-30 00:52:00,64.0,60.0,29.70,ESE,113,2.0,10.0,87,0.00,,,2.72,,2013-05-30 05:52:00,
2013-05-30 01:01:00,63.0,60.0,29.72,SE,141,0.0,6.0,89,0.00,,,2.72,,2013-05-30 06:01:00,
2013-05-30 01:12:00,63.0,60.0,29.72,SE,141,0.0,6.0,89,0.00,,,2.72,,2013-05-30 06:12:00,
2013-05-30 01:22:00,63.0,59.0,29.72,NE,55,1.0,2.0,88,0.00,,,2.72,,2013-05-30 06:22:00,
2013-05-30 01:32:00,63.0,59.0,29.72,NE,55,1.0,2.0,88,0.00,,,2.72,,2013-05-30 06:32:00,
2013-05-30 01:42:00,63.0,59.0,29.72,NE,55,1.0,2.0,88,0.00,,,2.72,,2013-05-30 06:42:00,
2013-05-30 01:52:00,63.0,59.0,29.72,NE,55,1.0,2.0,88,0.00,,,2.72,,2013-05-30 06:52:00,
2013-05-30 02:01:00,63.0,60.0,29.66,SE,143,0.0,3.0,91,0.03,,,2.75,,2013-05-30 07:01:00,
2013-05-30 02:12:00,63.0,60.0,29.66,SE,143,0.0,3.0,91,0.03,,,2.75,,2013-05-30 07:12:00,
2013-05-30 02:22:00,63.0,60.0,29.66,SE,143,0.0,3.0,91,0.03,,,2.75,,2013-05-30 07:22:00,
2013-05-30 02:31:00,63.0,60.0,29.66,SE,143,0.0,3.0,91,0.03,,,2.75,,2013-05-30 07:31:00,
2013-05-30 02:42:00,63.0,60.0,29.66,SE,143,0.0,3.0,91,0.03,,,2.75,,2013-05-30 07:42:00,
2013-05-30 02:52:00,62.0,60.0,29.67,NW,319,4.0,5.0,94,0.05,,,2.79,,2013-05-30 07:52:00,
2013-05-30 03:01:00,62.0,60.0,29.70,NW,319,4.0,4.0,94,0.03,,,2.79,,2013-05-30 08:01:00,
2013-05-30 03:02:00,62.0,60.0,29.67,NW,319,4.0,5.0,94,0.05,,,2.79,,2013-05-30 08:02:00,
2013-05-30 03:11:00,62.0,60.0,29.67,NW,319,4.0,5.0,94,0.05,,,2.79,,2013-05-30 08:11:00,
2013-05-30 03:21:00,62.0,60.0,29.70,NW,319,4.0,4.0,94,0.03,,,2.79,,2013-05-30 08:21:00,
2013-05-30 03:32:00,62.0,60.0,29.70,NW,319,4.0,4.0,94,0.03,,,2.79,,2013-05-30 08:32:00,
2013-05-30 03:42:00,62.0,60.0,29.70,NW,319,4.0,4.0,94,0.03,,,2.79,,2013-05-30 08:42:00,
2013-05-30 03:53:00,62.0,60.0,29.70,NW,319,4.0,4.0,94,0.03,,,2.79,,2013-05-30 08:53:00,
2013-05-30 04:22:00,62.0,60.0,29.66,NW,319,4.0,4.0,94,0.00,,,2.79,,2013-05-30 09:22:00,
2013-05-30 04:33:00,62.0,60.0,29.63,NW,319,4.0,4.0,94,0.00,,,2.79,,2013-05-30 09:33:00,
2013-05-30 04:43:00,62.0,60.0,29.63,NW,319,4.0,4.0,94,0.00,,,2.79,,2013-05-30 09:43:00,
2013-05-30 04:53:00,62.0,60.0,29.66,NW,319,4.0,4.0,94,0.00,,,2.79,,2013-05-30 09:53:00,
2013-05-30 05:01:00,62.0,60.0,29.65,NW,319,4.0,4.0,94,0.00,,,2.79,,2013-05-30 10:01:00,
2013-05-30 05:02:00,62.0,60.0,29.66,NW,319,4.0,4.0,94,0.00,,,2.79,,2013-05-30 10:02:00,
2013-05-30 05:12:00,62.0,60.0,29.66,NW,319,4.0,4.0,94,0.00,,,2.79,,2013-05-30 10:12:00,
2013-05-30 05:22:00,62.0,60.0,29.65,NW,319,4.0,4.0,94,0.00,,,2.79,,2013-05-30 10:22:00,
2013-05-30 05:32:00,62.0,60.0,29.65,NW,319,4.0,4.0,94,0.00,,,2.79,,2013-05-30 10:32:00,
2013-05-30 05:42:00,62.0,60.0,29.65,NW,319,4.0,4.0,94,0.00,,,2.79,,2013-05-30 10:42:00,
2013-05-30 05:52:00,62.0,60.0,29.65,NW,319,4.0,4.0,94,0.00,,,2.79,,2013-05-30 10:52:00,
2013-05-30 06:32:00,62.0,60.0,29.66,NW,319,4.0,4.0,94,0.00,,,2.79,,2013-05-30 11:32:00,
2013-05-30 06:42:00,62.0,60.0,29.66,NW,319,4.0,4.0,94,0.00,,,2.79,,2013-05-30 11:42:00,
2013-05-30 06:52:00,62.0,60.0,29.66,NW,319,4.0,4.0,94,0.00,,,2.79,,2013-05-30 11:52:00,
2013-05-30 07:01:00,62.0,60.0,29.68,NW,319,4.0,4.0,94,0.00,,,2.79,,2013-05-30 12:01:00,
2013-05-30 07:11:00,62.0,60.0,29.68,NW,319,4.0,4.0,94,0.00,,,2.79,,2013-05-30 12:11:00,
2013-05-30 07:22:00,62.0,60.0,29.68,NW,319,4.0,4.0,94,0.00,,,2.79,,2013-05-30 12:22:00,
2013-05-30 07:32:00,62.0,60.0,29.68,NW,319,4.0,4.0,94,0.00,,,2.79,,2013-05-30 12:32:00,
2013-05-30 07:42:00,62.0,60.0,29.68,NW,319,4.0,4.0,94,0.00,,,2.79,,2013-05-30 12:42:00,
2013-05-30 07:52:00,62.0,60.0,29.71,NW,319,4.0,4.0,94,0.00,,,2.79,,2013-05-30 12:52:00,
2013-05-30 08:01:00,62.0,60.0,29.69,NW,319,4.0,4.0,94,0.00,,,2.79,,2013-05-30 13:01:00,
2013-05-30 08:11:00,62.0,60.0,29.69,NW,319,4.0,4.0,94,0.00,,,2.79,,2013-05-30 13:11:00,
2013-05-30 08:22:00,62.0,60.0,29.69,NW,319,4.0,4.0,94,0.00,,,2.79,,2013-05-30 13:22:00,
2013-05-30 08:32:00,62.0,60.0,29.69,NW,319,4.0,4.0,94,0.00,,,2.79,,2013-05-30 13:32:00,
2013-05-30 08:42:00,62.0,60.0,29.69,NW,319,4.0,4.0,94,0.00,,,2.79,,2013-05-30 13:42:00,
2013-05-30 08:52:00,60.0,58.0,29.59,SE,129,7.0,15.0,94,0.01,,,2.76,,2013-05-30 13:52:00,
2013-05-30 09:01:00,60.0,58.0,29.57,SSE,163,5.0,16.0,92,0.02,,,2.77,,2013-05-30 14:01:00,
2013-05-30 09:11:00,60.0,58.0,29.57,SSE,163,5.0,16.0,92,0.02,,,2.77,,2013-05-30 14:11:00,
2013-05-30 09:22:00,61.0,58.0,29.60,SE,124,4.0,17.0,89,0.02,,,2.77,,2013-05-30 14:22:00,
2013-05-30 09:32:00,61.0,58.0,29.60,SE,124,4.0,17.0,89,0.02,,,2.77,,2013-05-30 14:32:00,
2013-05-30 09:42:00,61.0,58.0,29.60,SE,124,4.0,17.0,89,0.02,,,2.77,,2013-05-30 14:42:00,
2013-05-30 09:52:00,61.0,58.0,29.60,SE,124,4.0,17.0,89,0.02,,,2.77,,2013-05-30 14:52:00,
2013-05-30 10:22:00,61.0,58.0,29.66,West,280,0.0,3.0,91,0.00,,,2.77,,2013-05-30 15:22:00,
2013-05-30 10:33:00,61.0,58.0,29.66,West,280,0.0,3.0,91,0.00,,,2.77,,2013-05-30 15:33:00,
2013-05-30 10:43:00,63.0,60.0,29.67,WSW,245,0.0,2.0,89,0.00,,,2.77,,2013-05-30 15:43:00,
2013-05-30 10:53:00,63.0,60.0,29.67,WSW,245,0.0,2.0,89,0.00,,,2.77,,2013-05-30 15:53:00,
2013-05-30 11:03:00,63.0,60.0,29.67,WSW,245,0.0,2.0,89,0.00,,,2.77,,2013-05-30 16:03:00,
2013-05-30 11:12:00,63.0,60.0,29.67,WSW,245,0.0,2.0,89,0.00,,,2.77,,2013-05-30 16:12:00,
2013-05-30 11:22:00,63.0,60.0,29.67,WSW,245,0.0,2.0,89,0.00,,,2.77,,2013-05-30 16:22:00,
2013-05-30 11:33:00,65.0,59.0,29.70,SW,218,1.0,6.0,81,0.00,,,2.77,,2013-05-30 16:33:00,
2013-05-30 11:42:00,65.0,60.0,29.70,SSE,155,0.0,6.0,83,0.00,,,2.77,,2013-05-30 16:42:00,
2013-05-30 11:53:00,65.0,60.0,29.70,SSE,155,0.0,6.0,83,0.00,,,2.77,,2013-05-30 16:53:00,
2013-05-30 12:02:00,65.0,60.0,29.70,SSE,155,0.0,6.0,83,0.00,,,2.77,,2013-05-30 17:02:00,
2013-05-30 12:11:00,65.0,60.0,29.70,SSE,155,0.0,6.0,83,0.00,,,2.77,,2013-05-30 17:11:00,
2013-05-30 12:22:00,65.0,60.0,29.70,SSE,155,0.0,6.0,83,0.00,,,2.77,,2013-05-30 17:22:00,
2013-05-30 12:32:00,65.0,60.0,29.67,WNW,283,4.0,8.0,84,0.00,,,2.77,,2013-05-30 17:32:00,
2013-05-30 12:42:00,65.0,60.0,29.67,WNW,283,4.0,8.0,84,0.00,,,2.77,,2013-05-30 17:42:00,
2013-05-30 12:52:00,65.0,59.0,29.66,WSW,252,0.0,10.0,82,0.00,,,2.77,,2013-05-30 17:52:00,
2013-05-30 13:02:00,67.0,60.0,29.69,WSW,240,5.0,12.0,79,0.00,,,2.77,,2013-05-30 18:02:00,
2013-05-30 13:11:00,67.0,60.0,29.69,WSW,240,5.0,12.0,79,0.00,,,2.77,,2013-05-30 18:11:00,
2013-05-30 13:21:00,67.0,60.0,29.69,WSW,240,5.0,12.0,79,0.00,,,2.77,,2013-05-30 18:21:00,
2013-05-30 13:32:00,70.0,62.0,29.67,WSW,255,4.0,9.0,76,0.00,,,2.77,,2013-05-30 18:32:00,
2013-05-30 13:42:00,70.0,62.0,29.67,WSW,255,4.0,9.0,76,0.00,,,2.77,,2013-05-30 18:42:00,
2013-05-30 13:52:00,70.0,62.0,29.67,WSW,255,4.0,9.0,76,0.00,,,2.77,,2013-05-30 18:52:00,
2013-05-30 14:01:00,72.0,63.0,29.67,West,260,4.0,10.0,74,0.00,,,2.77,,2013-05-30 19:01:00,
2013-05-30 14:11:00,72.0,63.0,29.67,West,260,4.0,10.0,74,0.00,,,2.77,,2013-05-30 19:11:00,
2013-05-30 14:23:00,74.0,63.0,29.67,SW,224,9.0,12.0,69,0.00,,,2.77,,2013-05-30 19:23:00,
2013-05-30 14:32:00,74.0,63.0,29.67,SW,224,9.0,12.0,69,0.00,,,2.77,,2013-05-30 19:32:00,
2013-05-30 14:42:00,74.0,63.0,29.67,SW,224,9.0,12.0,69,0.00,,,2.77,,2013-05-30 19:42:00,
2013-05-30 14:53:00,74.0,63.0,29.67,SW,224,9.0,12.0,69,0.00,,,2.77,,2013-05-30 19:53:00,
2013-05-30 15:01:00,77.0,62.0,29.67,West,259,5.0,9.0,60,0.00,,,2.77,,2013-05-30 20:01:00,
2013-05-30 15:11:00,77.0,62.0,29.67,West,259,5.0,9.0,60,0.00,,,2.77,,2013-05-30 20:11:00,
2013-05-30 15:22:00,77.0,62.0,29.67,West,259,5.0,9.0,60,0.00,,,2.77,,2013-05-30 20:22:00,
2013-05-30 15:33:00,78.0,62.0,29.67,WSW,246,0.0,10.0,58,0.00,,,2.77,,2013-05-30 20:33:00,
2013-05-30 15:42:00,78.0,62.0,29.67,WSW,246,0.0,10.0,58,0.00,,,2.77,,2013-05-30 20:42:00,
2013-05-30 15:52:00,78.0,62.0,29.67,WSW,246,0.0,10.0,58,0.00,,,2.77,,2013-05-30 20:52:00,
2013-05-30 16:01:00,79.0,60.0,29.66,SSW,205,4.0,11.0,52,0.00,,,2.77,,2013-05-30 21:01:00,
2013-05-30 16:11:00,79.0,61.0,29.65,WSW,239,7.0,10.0,54,0.00,,,2.77,,2013-05-30 21:11:00,
2013-05-30 16:22:00,79.0,61.0,29.65,WSW,239,7.0,10.0,54,0.00,,,2.77,,2013-05-30 21:22:00,
2013-05-30 16:33:00,80.0,61.0,29.66,SW,235,7.0,9.0,52,0.00,,,2.77,,2013-05-30 21:33:00,
2013-05-30 16:42:00,80.0,61.0,29.66,SW,235,7.0,9.0,52,0.00,,,2.77,,2013-05-30 21:42:00,
2013-05-30 16:53:00,80.0,60.0,29.66,SSW,193,6.0,10.0,51,0.00,,,2.77,,2013-05-30 21:53:00,
2013-05-30 17:02:00,80.0,60.0,29.66,SSW,193,6.0,10.0,51,0.00,,,2.77,,2013-05-30 22:02:00,
2013-05-30 17:12:00,80.0,60.0,29.66,SSW,193,6.0,10.0,51,0.00,,,2.77,,2013-05-30 22:12:00,
2013-05-30 17:23:00,80.0,60.0,29.66,SSW,193,6.0,10.0,51,0.00,,,2.77,,2013-05-30 22:23:00,
2013-05-30 17:33:00,81.0,61.0,29.67,WSW,243,4.0,10.0,50,0.00,,,2.35,,2013-05-30 22:33:00,
2013-05-30 17:42:00,79.0,60.0,29.68,NNE,16,1.0,9.0,53,0.00,,,2.25,,2013-05-30 22:42:00,
2013-05-30 17:52:00,79.0,60.0,29.68,NNE,16,1.0,9.0,53,0.00,,,2.25,,2013-05-30 22:52:00,
2013-05-30 18:02:00,79.0,60.0,29.68,NNE,16,1.0,9.0,53,0.00,,,2.25,,2013-05-30 23:02:00,
2013-05-30 18:11:00,79.0,60.0,29.68,NNE,16,1.0,9.0,53,0.00,,,2.25,,2013-05-30 23:11:00,
2013-05-30 18:22:00,70.0,56.0,29.70,WNW,289,9.0,23.0,62,0.00,,,1.92,,2013-05-30 23:22:00,
2013-05-30 18:32:00,66.0,56.0,29.66,NW,316,5.0,15.0,70,0.00,,,1.65,,2013-05-30 23:32:00,
2013-05-30 18:42:00,66.0,56.0,29.66,NW,316,5.0,15.0,70,0.00,,,1.65,,2013-05-30 23:42:00,
2013-05-30 18:52:00,66.0,56.0,29.69,SW,224,2.0,12.0,71,0.00,,,1.35,,2013-05-30 23:52:00,
2013-05-30 19:01:00,66.0,56.0,29.69,SW,224,2.0,12.0,71,0.00,,,1.35,,2013-05-31 00:01:00,
2013-05-30 19:11:00,66.0,56.0,29.69,SW,224,2.0,12.0,71,0.00,,,1.35,,2013-05-31 00:11:00,
2013-05-30 19:22:00,69.0,57.0,29.63,NE,56,2.0,9.0,65,0.00,,,0.42,,2013-05-31 00:22:00,
2013-05-30 19:32:00,69.0,57.0,29.63,NE,56,2.0,9.0,65,0.00,,,0.42,,2013-05-31 00:32:00,
2013-05-30 19:42:00,70.0,58.0,29.67,SSE,166,0.0,0.0,65,0.00,,,0.09,,2013-05-31 00:42:00,
2013-05-30 19:52:00,70.0,58.0,29.67,SSE,166,0.0,0.0,65,0.00,,,0.09,,2013-05-31 00:52:00,
2013-05-30 20:01:00,70.0,57.0,29.67,SSE,167,0.0,0.0,63,0.00,,,0.09,,2013-05-31 01:01:00,
2013-05-30 20:12:00,70.0,57.0,29.67,SSE,167,0.0,0.0,63,0.00,,,0.09,,2013-05-31 01:12:00,
2013-05-30 20:21:00,71.0,58.0,29.68,ENE,60,0.0,3.0,63,0.00,,,0.09,,2013-05-31 01:21:00,
2013-05-30 20:32:00,71.0,58.0,29.69,SE,135,0.0,2.0,63,0.00,,,0.09,,2013-05-31 01:32:00,
2013-05-30 20:42:00,71.0,58.0,29.69,SE,135,0.0,2.0,63,0.00,,,0.09,,2013-05-31 01:42:00,
2013-05-30 20:52:00,71.0,58.0,29.69,SE,135,0.0,2.0,63,0.00,,,0.09,,2013-05-31 01:52:00,
2013-05-30 21:02:00,69.0,58.0,29.68,SSE,167,0.0,0.0,67,0.00,,,0.09,,2013-05-31 02:02:00,
2013-05-30 21:11:00,69.0,58.0,29.68,SSE,167,0.0,0.0,67,0.00,,,0.09,,2013-05-31 02:11:00,
2013-05-30 21:22:00,69.0,58.0,29.68,SSE,167,0.0,0.0,67,0.00,,,0.09,,2013-05-31 02:22:00,
2013-05-30 21:32:00,68.0,58.0,29.68,SE,138,0.0,1.0,71,0.00,,,0.09,,2013-05-31 02:32:00,
2013-05-30 21:41:00,68.0,58.0,29.68,SE,138,0.0,1.0,71,0.00,,,0.09,,2013-05-31 02:41:00,
2013-05-30 21:52:00,68.0,58.0,29.68,SE,138,0.0,1.0,71,0.00,,,0.09,,2013-05-31 02:52:00,
2013-05-30 22:01:00,68.0,58.0,29.68,SE,138,0.0,1.0,71,0.00,,,0.09,,2013-05-31 03:01:00,
2013-05-30 22:11:00,68.0,58.0,29.68,SE,138,0.0,1.0,71,0.00,,,0.09,,2013-05-31 03:11:00,
2013-05-30 22:22:00,67.0,59.0,29.70,East,89,0.0,4.0,75,0.00,,,0.09,,2013-05-31 03:22:00,
2013-05-30 22:31:00,67.0,58.0,29.72,South,172,0.0,1.0,73,0.00,,,0.09,,2013-05-31 03:31:00,
2013-05-30 22:33:00,66.0,59.0,29.71,SE,140,0.0,2.0,77,0.00,,,0.09,,2013-05-31 03:33:00,
2013-05-30 22:43:00,66.0,59.0,29.71,SE,140,0.0,2.0,77,0.00,,,0.09,,2013-05-31 03:43:00,
2013-05-30 22:53:00,67.0,58.0,29.72,South,172,0.0,1.0,73,0.00,,,0.09,,2013-05-31 03:53:00,
2013-05-30 23:02:00,67.0,58.0,29.72,South,172,0.0,1.0,73,0.00,,,0.09,,2013-05-31 04:02:00,
2013-05-30 23:12:00,67.0,58.0,29.72,South,172,0.0,1.0,73,0.00,,,0.09,,2013-05-31 04:12:00,
2013-05-30 23:22:00,67.0,58.0,29.72,South,172,0.0,1.0,73,0.00,,,0.09,,2013-05-31 04:22:00,